sensor_id;sensor_type;location;lat;lon;timestamp;temperature;humidity
21123;DHT22;10719;48.130;11.630;2023-08-30T00:00:38;12.30;99.90
21123;DHT22;10719;48.130;11.630;2023-08-30T00:03:04;12.30;99.90
21123;DHT22;10719;48.130;11.630;2023-08-30T00:05:30;12.20;99.90
21123;DHT22;10719;48.130;11.630;2023-08-30T00:07:56;12.20;99.90
21123;DHT22;10719;48.130;11.630;2023-08-30T00:10:21;12.20;99.90
21123;DHT22;10719;48.130;11.630;2023-08-30T00:12:47;12.20;99.90
21123;DHT22;10719;48.130;11.630;2023-08-30T00:15:13;12.20;99.90
21123;DHT22;10719;48.130;11.630;2023-08-30T00:17:39;12.20;99.90
21123;DHT22;10719;48.130;11.630;2023-08-30T00:20:05;12.20;99.90
21123;DHT22;10719;48.130;11.630;2023-08-30T00:22:32;12.20;99.90
21123;DHT22;10719;48.130;11.630;2023-08-30T00:24:59;12.20;99.90
21123;DHT22;10719;48.130;11.630;2023-08-30T00:27:24;12.20;99.90
21123;DHT22;10719;48.130;11.630;2023-08-30T00:29:50;12.20;99.90
21123;DHT22;10719;48.130;11.630;2023-08-30T00:32:15;12.20;99.90
21123;DHT22;10719;48.130;11.630;2023-08-30T00:34:41;12.20;99.90
21123;DHT22;10719;48.130;11.630;2023-08-30T00:37:07;12.20;99.90
21123;DHT22;10719;48.130;11.630;2023-08-30T00:39:34;12.10;99.90
21123;DHT22;10719;48.130;11.630;2023-08-30T00:41:59;12.10;99.90
21123;DHT22;10719;48.130;11.630;2023-08-30T00:44:30;12.10;99.90
21123;DHT22;10719;48.130;11.630;2023-08-30T00:46:55;12.10;99.90
21123;DHT22;10719;48.130;11.630;2023-08-30T00:49:21;12.10;99.90
21123;DHT22;10719;48.130;11.630;2023-08-30T00:51:47;12.10;99.90
21123;DHT22;10719;48.130;11.630;2023-08-30T00:54:12;12.10;99.90
21123;DHT22;10719;48.130;11.630;2023-08-30T00:56:38;12.10;99.90
21123;DHT22;10719;48.130;11.630;2023-08-30T00:59:04;12.10;99.90
21123;DHT22;10719;48.130;11.630;2023-08-30T01:01:29;12.10;99.90
21123;DHT22;10719;48.130;11.630;2023-08-30T01:03:55;12.10;99.90
21123;DHT22;10719;48.130;11.630;2023-08-30T01:06:20;12.10;99.90
21123;DHT22;10719;48.130;11.630;2023-08-30T01:08:46;12.10;99.90
21123;DHT22;10719;48.130;11.630;2023-08-30T01:14:11;12.10;99.90
21123;DHT22;10719;48.130;11.630;2023-08-30T01:16:37;12.10;99.90
21123;DHT22;10719;48.130;11.630;2023-08-30T01:19:49;12.10;99.90
21123;DHT22;10719;48.130;11.630;2023-08-30T01:22:08;12.10;99.90
21123;DHT22;10719;48.130;11.630;2023-08-30T01:24:45;12.10;99.90
21123;DHT22;10719;48.130;11.630;2023-08-30T01:27:13;12.10;99.90
21123;DHT22;10719;48.130;11.630;2023-08-30T01:29:43;12.10;99.90
21123;DHT22;10719;48.130;11.630;2023-08-30T01:32:10;12.10;99.90
21123;DHT22;10719;48.130;11.630;2023-08-30T01:34:39;12.10;99.90
21123;DHT22;10719;48.130;11.630;2023-08-30T01:37:07;12.20;99.90
21123;DHT22;10719;48.130;11.630;2023-08-30T01:39:39;12.10;99.90
21123;DHT22;10719;48.130;11.630;2023-08-30T01:42:07;12.10;99.90
21123;DHT22;10719;48.130;11.630;2023-08-30T01:44:33;12.10;99.90
21123;DHT22;10719;48.130;11.630;2023-08-30T01:47:00;12.10;99.90
21123;DHT22;10719;48.130;11.630;2023-08-30T01:49:28;12.10;99.90
21123;DHT22;10719;48.130;11.630;2023-08-30T01:51:54;12.10;99.90
21123;DHT22;10719;48.130;11.630;2023-08-30T01:54:20;12.10;99.90
21123;DHT22;10719;48.130;11.630;2023-08-30T01:56:46;12.10;99.90
21123;DHT22;10719;48.130;11.630;2023-08-30T01:59:12;12.00;99.90
21123;DHT22;10719;48.130;11.630;2023-08-30T02:01:38;12.00;99.90
21123;DHT22;10719;48.130;11.630;2023-08-30T02:04:04;12.00;99.90
21123;DHT22;10719;48.130;11.630;2023-08-30T02:06:50;12.00;99.90
21123;DHT22;10719;48.130;11.630;2023-08-30T02:09:47;12.10;99.90
21123;DHT22;10719;48.130;11.630;2023-08-30T02:12:15;12.10;99.90
21123;DHT22;10719;48.130;11.630;2023-08-30T02:14:50;12.10;99.90
21123;DHT22;10719;48.130;11.630;2023-08-30T02:17:17;12.10;99.90
21123;DHT22;10719;48.130;11.630;2023-08-30T02:19:44;12.10;99.90
21123;DHT22;10719;48.130;11.630;2023-08-30T02:22:10;12.10;99.90
21123;DHT22;10719;48.130;11.630;2023-08-30T02:24:36;12.10;99.90
21123;DHT22;10719;48.130;11.630;2023-08-30T02:27:01;12.10;99.90
21123;DHT22;10719;48.130;11.630;2023-08-30T02:29:27;12.10;99.90
21123;DHT22;10719;48.130;11.630;2023-08-30T02:31:53;12.10;99.90
21123;DHT22;10719;48.130;11.630;2023-08-30T02:34:18;12.10;99.90
21123;DHT22;10719;48.130;11.630;2023-08-30T02:36:44;12.10;99.90
21123;DHT22;10719;48.130;11.630;2023-08-30T02:39:10;12.10;99.90
21123;DHT22;10719;48.130;11.630;2023-08-30T02:41:36;12.10;99.90
21123;DHT22;10719;48.130;11.630;2023-08-30T02:44:01;12.10;99.90
21123;DHT22;10719;48.130;11.630;2023-08-30T02:46:27;12.10;99.90
21123;DHT22;10719;48.130;11.630;2023-08-30T02:48:53;12.10;99.90
21123;DHT22;10719;48.130;11.630;2023-08-30T02:51:18;12.10;99.90
21123;DHT22;10719;48.130;11.630;2023-08-30T02:53:44;12.10;99.90
21123;DHT22;10719;48.130;11.630;2023-08-30T02:56:09;12.10;99.90
21123;DHT22;10719;48.130;11.630;2023-08-30T02:58:36;12.10;99.90
21123;DHT22;10719;48.130;11.630;2023-08-30T03:01:02;12.10;99.90
21123;DHT22;10719;48.130;11.630;2023-08-30T03:03:28;12.10;99.90
21123;DHT22;10719;48.130;11.630;2023-08-30T03:05:53;12.10;99.90
21123;DHT22;10719;48.130;11.630;2023-08-30T03:08:19;12.10;99.90
21123;DHT22;10719;48.130;11.630;2023-08-30T03:10:45;12.10;99.90
21123;DHT22;10719;48.130;11.630;2023-08-30T03:13:10;12.10;99.90
21123;DHT22;10719;48.130;11.630;2023-08-30T03:15:36;12.10;99.90
21123;DHT22;10719;48.130;11.630;2023-08-30T03:18:01;12.10;99.90
21123;DHT22;10719;48.130;11.630;2023-08-30T03:20:27;12.10;99.90
21123;DHT22;10719;48.130;11.630;2023-08-30T03:22:56;12.10;99.90
21123;DHT22;10719;48.130;11.630;2023-08-30T03:25:23;12.10;99.90
21123;DHT22;10719;48.130;11.630;2023-08-30T03:27:48;12.10;99.90
21123;DHT22;10719;48.130;11.630;2023-08-30T03:30:14;12.10;99.90
21123;DHT22;10719;48.130;11.630;2023-08-30T03:32:39;12.10;99.90
21123;DHT22;10719;48.130;11.630;2023-08-30T03:35:05;12.10;99.90
21123;DHT22;10719;48.130;11.630;2023-08-30T03:37:31;12.10;99.90
21123;DHT22;10719;48.130;11.630;2023-08-30T03:39:57;12.10;99.90
21123;DHT22;10719;48.130;11.630;2023-08-30T03:42:22;12.10;99.90
21123;DHT22;10719;48.130;11.630;2023-08-30T03:44:48;12.10;99.90
21123;DHT22;10719;48.130;11.630;2023-08-30T03:47:13;12.20;99.90
21123;DHT22;10719;48.130;11.630;2023-08-30T03:49:39;12.10;99.90
21123;DHT22;10719;48.130;11.630;2023-08-30T03:52:05;12.10;99.90
21123;DHT22;10719;48.130;11.630;2023-08-30T03:54:31;12.10;99.90
21123;DHT22;10719;48.130;11.630;2023-08-30T03:56:57;12.10;99.90
21123;DHT22;10719;48.130;11.630;2023-08-30T03:59:23;12.10;99.90
21123;DHT22;10719;48.130;11.630;2023-08-30T04:01:50;12.10;99.90
21123;DHT22;10719;48.130;11.630;2023-08-30T04:04:16;12.20;99.90
21123;DHT22;10719;48.130;11.630;2023-08-30T04:06:42;12.20;99.90
21123;DHT22;10719;48.130;11.630;2023-08-30T04:09:07;12.20;99.90
21123;DHT22;10719;48.130;11.630;2023-08-30T04:11:33;12.20;99.90
21123;DHT22;10719;48.130;11.630;2023-08-30T04:13:59;12.10;99.90
21123;DHT22;10719;48.130;11.630;2023-08-30T04:16:24;12.10;99.90
21123;DHT22;10719;48.130;11.630;2023-08-30T04:18:50;12.10;99.90
21123;DHT22;10719;48.130;11.630;2023-08-30T04:21:16;12.20;99.90
21123;DHT22;10719;48.130;11.630;2023-08-30T04:23:41;12.20;99.90
21123;DHT22;10719;48.130;11.630;2023-08-30T04:26:07;12.10;99.90
21123;DHT22;10719;48.130;11.630;2023-08-30T04:28:32;12.20;99.90
21123;DHT22;10719;48.130;11.630;2023-08-30T04:30:58;12.20;99.90
21123;DHT22;10719;48.130;11.630;2023-08-30T04:33:26;12.20;99.90
21123;DHT22;10719;48.130;11.630;2023-08-30T04:35:52;12.10;99.90
21123;DHT22;10719;48.130;11.630;2023-08-30T04:38:19;12.20;99.90
21123;DHT22;10719;48.130;11.630;2023-08-30T04:40:45;12.10;99.90
21123;DHT22;10719;48.130;11.630;2023-08-30T04:43:11;12.20;99.90
21123;DHT22;10719;48.130;11.630;2023-08-30T04:45:37;12.20;99.90
21123;DHT22;10719;48.130;11.630;2023-08-30T04:48:03;12.20;99.90
21123;DHT22;10719;48.130;11.630;2023-08-30T04:50:28;12.20;99.90
21123;DHT22;10719;48.130;11.630;2023-08-30T04:52:54;12.20;99.90
21123;DHT22;10719;48.130;11.630;2023-08-30T04:55:19;12.20;99.90
21123;DHT22;10719;48.130;11.630;2023-08-30T04:57:45;12.20;99.90
21123;DHT22;10719;48.130;11.630;2023-08-30T05:00:13;12.20;99.90
21123;DHT22;10719;48.130;11.630;2023-08-30T05:02:39;12.20;99.90
21123;DHT22;10719;48.130;11.630;2023-08-30T05:05:06;12.30;99.90
21123;DHT22;10719;48.130;11.630;2023-08-30T05:07:31;12.30;99.90
21123;DHT22;10719;48.130;11.630;2023-08-30T05:09:57;12.30;99.90
21123;DHT22;10719;48.130;11.630;2023-08-30T05:12:23;12.30;99.90
21123;DHT22;10719;48.130;11.630;2023-08-30T05:14:48;12.30;99.90
21123;DHT22;10719;48.130;11.630;2023-08-30T05:17:14;12.30;99.90
21123;DHT22;10719;48.130;11.630;2023-08-30T05:19:39;12.30;99.90
21123;DHT22;10719;48.130;11.630;2023-08-30T05:22:05;12.30;99.90
21123;DHT22;10719;48.130;11.630;2023-08-30T05:24:30;12.30;99.90
21123;DHT22;10719;48.130;11.630;2023-08-30T05:26:56;12.30;99.90
21123;DHT22;10719;48.130;11.630;2023-08-30T05:29:21;12.40;99.90
21123;DHT22;10719;48.130;11.630;2023-08-30T05:31:47;12.40;99.90
21123;DHT22;10719;48.130;11.630;2023-08-30T05:34:13;12.40;99.90
21123;DHT22;10719;48.130;11.630;2023-08-30T05:36:38;12.40;99.90
21123;DHT22;10719;48.130;11.630;2023-08-30T05:39:04;12.40;99.90
21123;DHT22;10719;48.130;11.630;2023-08-30T05:41:29;12.40;99.90
21123;DHT22;10719;48.130;11.630;2023-08-30T05:43:55;12.40;99.90
21123;DHT22;10719;48.130;11.630;2023-08-30T05:46:21;12.50;99.90
21123;DHT22;10719;48.130;11.630;2023-08-30T05:48:46;12.50;99.90
21123;DHT22;10719;48.130;11.630;2023-08-30T05:51:12;12.50;99.90
21123;DHT22;10719;48.130;11.630;2023-08-30T05:53:38;12.50;99.90
21123;DHT22;10719;48.130;11.630;2023-08-30T05:56:04;12.50;99.90
21123;DHT22;10719;48.130;11.630;2023-08-30T05:58:29;12.50;99.90
21123;DHT22;10719;48.130;11.630;2023-08-30T06:00:56;12.50;99.90
21123;DHT22;10719;48.130;11.630;2023-08-30T06:03:22;12.50;99.90
21123;DHT22;10719;48.130;11.630;2023-08-30T06:05:48;12.50;99.90
21123;DHT22;10719;48.130;11.630;2023-08-30T06:08:14;12.40;99.90
21123;DHT22;10719;48.130;11.630;2023-08-30T06:10:40;12.40;99.90
21123;DHT22;10719;48.130;11.630;2023-08-30T06:13:05;12.40;99.90
21123;DHT22;10719;48.130;11.630;2023-08-30T06:15:31;12.40;99.90
21123;DHT22;10719;48.130;11.630;2023-08-30T06:17:57;12.30;99.90
21123;DHT22;10719;48.130;11.630;2023-08-30T06:20:24;12.40;99.90
21123;DHT22;10719;48.130;11.630;2023-08-30T06:22:49;12.40;99.90
21123;DHT22;10719;48.130;11.630;2023-08-30T06:25:15;12.50;99.90
21123;DHT22;10719;48.130;11.630;2023-08-30T06:27:55;12.50;99.90
21123;DHT22;10719;48.130;11.630;2023-08-30T06:30:21;12.50;99.90
21123;DHT22;10719;48.130;11.630;2023-08-30T06:32:48;12.50;99.90
21123;DHT22;10719;48.130;11.630;2023-08-30T06:35:14;12.50;99.90
21123;DHT22;10719;48.130;11.630;2023-08-30T06:37:40;12.50;99.90
21123;DHT22;10719;48.130;11.630;2023-08-30T06:40:06;12.70;99.90
21123;DHT22;10719;48.130;11.630;2023-08-30T06:42:32;12.70;99.90
21123;DHT22;10719;48.130;11.630;2023-08-30T06:44:58;12.80;99.90
21123;DHT22;10719;48.130;11.630;2023-08-30T06:47:23;12.80;99.90
21123;DHT22;10719;48.130;11.630;2023-08-30T06:49:49;12.90;99.90
21123;DHT22;10719;48.130;11.630;2023-08-30T06:52:14;12.90;99.90
21123;DHT22;10719;48.130;11.630;2023-08-30T06:54:40;13.00;99.90
21123;DHT22;10719;48.130;11.630;2023-08-30T06:57:06;12.90;99.90
21123;DHT22;10719;48.130;11.630;2023-08-30T06:59:32;12.90;99.90
21123;DHT22;10719;48.130;11.630;2023-08-30T07:01:58;12.90;99.90
21123;DHT22;10719;48.130;11.630;2023-08-30T07:04:23;12.90;99.90
21123;DHT22;10719;48.130;11.630;2023-08-30T07:06:49;12.90;99.90
21123;DHT22;10719;48.130;11.630;2023-08-30T07:09:15;12.80;99.90
21123;DHT22;10719;48.130;11.630;2023-08-30T07:11:42;12.80;99.90
21123;DHT22;10719;48.130;11.630;2023-08-30T07:14:10;12.90;99.90
21123;DHT22;10719;48.130;11.630;2023-08-30T07:16:36;12.80;99.90
21123;DHT22;10719;48.130;11.630;2023-08-30T07:19:01;12.80;99.90
21123;DHT22;10719;48.130;11.630;2023-08-30T07:21:27;12.80;99.90
21123;DHT22;10719;48.130;11.630;2023-08-30T07:23:53;12.80;99.90
21123;DHT22;10719;48.130;11.630;2023-08-30T07:26:19;12.90;99.90
21123;DHT22;10719;48.130;11.630;2023-08-30T07:28:45;12.90;99.90
21123;DHT22;10719;48.130;11.630;2023-08-30T07:31:11;12.90;99.90
21123;DHT22;10719;48.130;11.630;2023-08-30T07:33:39;13.00;99.90
21123;DHT22;10719;48.130;11.630;2023-08-30T07:36:04;13.10;99.90
21123;DHT22;10719;48.130;11.630;2023-08-30T07:38:30;13.10;99.90
21123;DHT22;10719;48.130;11.630;2023-08-30T07:40:56;13.10;99.90
21123;DHT22;10719;48.130;11.630;2023-08-30T07:43:22;13.20;99.90
21123;DHT22;10719;48.130;11.630;2023-08-30T07:45:48;13.20;99.90
21123;DHT22;10719;48.130;11.630;2023-08-30T07:48:14;13.20;99.90
21123;DHT22;10719;48.130;11.630;2023-08-30T07:50:40;13.20;99.90
21123;DHT22;10719;48.130;11.630;2023-08-30T07:53:05;13.30;99.90
21123;DHT22;10719;48.130;11.630;2023-08-30T07:55:31;13.40;99.90
21123;DHT22;10719;48.130;11.630;2023-08-30T07:57:56;13.40;99.90
21123;DHT22;10719;48.130;11.630;2023-08-30T08:00:22;13.40;99.90
21123;DHT22;10719;48.130;11.630;2023-08-30T08:02:47;13.50;99.90
21123;DHT22;10719;48.130;11.630;2023-08-30T08:05:13;13.60;99.90
21123;DHT22;10719;48.130;11.630;2023-08-30T08:07:39;13.60;99.90
21123;DHT22;10719;48.130;11.630;2023-08-30T08:10:08;13.70;99.90
21123;DHT22;10719;48.130;11.630;2023-08-30T08:12:34;13.60;99.90
21123;DHT22;10719;48.130;11.630;2023-08-30T08:15:00;13.70;99.90
21123;DHT22;10719;48.130;11.630;2023-08-30T08:17:26;13.50;99.90
21123;DHT22;10719;48.130;11.630;2023-08-30T08:19:51;13.60;99.90
21123;DHT22;10719;48.130;11.630;2023-08-30T08:22:17;13.60;99.90
21123;DHT22;10719;48.130;11.630;2023-08-30T08:24:43;13.70;99.90
21123;DHT22;10719;48.130;11.630;2023-08-30T08:27:11;13.80;99.90
21123;DHT22;10719;48.130;11.630;2023-08-30T08:29:37;14.00;99.90
21123;DHT22;10719;48.130;11.630;2023-08-30T08:32:03;14.20;99.90
21123;DHT22;10719;48.130;11.630;2023-08-30T08:34:29;14.20;99.90
21123;DHT22;10719;48.130;11.630;2023-08-30T08:36:55;14.30;99.90
21123;DHT22;10719;48.130;11.630;2023-08-30T08:39:21;14.40;99.90
21123;DHT22;10719;48.130;11.630;2023-08-30T08:41:47;14.50;99.90
21123;DHT22;10719;48.130;11.630;2023-08-30T08:44:13;14.60;99.90
21123;DHT22;10719;48.130;11.630;2023-08-30T08:46:41;14.80;99.90
21123;DHT22;10719;48.130;11.630;2023-08-30T08:49:09;14.80;99.90
21123;DHT22;10719;48.130;11.630;2023-08-30T08:51:36;14.90;99.90
21123;DHT22;10719;48.130;11.630;2023-08-30T08:54:04;15.00;99.90
21123;DHT22;10719;48.130;11.630;2023-08-30T08:56:31;14.90;99.90
21123;DHT22;10719;48.130;11.630;2023-08-30T08:58:57;14.70;99.90
21123;DHT22;10719;48.130;11.630;2023-08-30T09:01:24;15.00;99.90
21123;DHT22;10719;48.130;11.630;2023-08-30T09:03:50;15.10;99.90
21123;DHT22;10719;48.130;11.630;2023-08-30T09:06:16;15.20;99.90
21123;DHT22;10719;48.130;11.630;2023-08-30T09:08:42;15.30;99.90
21123;DHT22;10719;48.130;11.630;2023-08-30T09:11:08;15.40;99.90
21123;DHT22;10719;48.130;11.630;2023-08-30T09:13:33;15.80;99.90
21123;DHT22;10719;48.130;11.630;2023-08-30T09:15:59;16.00;99.90
21123;DHT22;10719;48.130;11.630;2023-08-30T09:18:25;16.30;99.90
21123;DHT22;10719;48.130;11.630;2023-08-30T09:21:25;16.70;99.90
21123;DHT22;10719;48.130;11.630;2023-08-30T09:24:00;17.30;99.90
21123;DHT22;10719;48.130;11.630;2023-08-30T09:26:27;17.40;99.90
21123;DHT22;10719;48.130;11.630;2023-08-30T09:29:04;17.50;99.90
21123;DHT22;10719;48.130;11.630;2023-08-30T09:31:37;17.20;99.90
21123;DHT22;10719;48.130;11.630;2023-08-30T09:34:04;17.20;99.90
21123;DHT22;10719;48.130;11.630;2023-08-30T09:36:40;17.20;99.90
21123;DHT22;10719;48.130;11.630;2023-08-30T09:39:10;17.20;99.90
21123;DHT22;10719;48.130;11.630;2023-08-30T09:41:37;17.00;99.90
21123;DHT22;10719;48.130;11.630;2023-08-30T09:44:13;16.90;99.90
21123;DHT22;10719;48.130;11.630;2023-08-30T09:46:55;16.80;99.90
21123;DHT22;10719;48.130;11.630;2023-08-30T09:49:22;16.60;99.90
21123;DHT22;10719;48.130;11.630;2023-08-30T09:51:50;16.30;99.90
21123;DHT22;10719;48.130;11.630;2023-08-30T09:54:24;16.10;99.90
21123;DHT22;10719;48.130;11.630;2023-08-30T09:56:50;16.20;99.90
21123;DHT22;10719;48.130;11.630;2023-08-30T09:59:22;16.10;99.90
21123;DHT22;10719;48.130;11.630;2023-08-30T10:01:47;16.00;99.90
21123;DHT22;10719;48.130;11.630;2023-08-30T10:04:15;15.90;99.90
21123;DHT22;10719;48.130;11.630;2023-08-30T10:06:40;15.80;99.90
21123;DHT22;10719;48.130;11.630;2023-08-30T10:09:08;15.90;99.90
21123;DHT22;10719;48.130;11.630;2023-08-30T10:11:35;16.30;99.90
21123;DHT22;10719;48.130;11.630;2023-08-30T10:14:06;16.80;99.90
21123;DHT22;10719;48.130;11.630;2023-08-30T10:16:40;17.10;99.90
21123;DHT22;10719;48.130;11.630;2023-08-30T10:19:11;17.80;99.90
21123;DHT22;10719;48.130;11.630;2023-08-30T10:21:36;18.40;99.90
21123;DHT22;10719;48.130;11.630;2023-08-30T10:24:05;18.00;99.90
21123;DHT22;10719;48.130;11.630;2023-08-30T10:26:33;18.20;99.90
21123;DHT22;10719;48.130;11.630;2023-08-30T10:28:59;18.40;99.90
21123;DHT22;10719;48.130;11.630;2023-08-30T10:31:27;18.60;99.90
21123;DHT22;10719;48.130;11.630;2023-08-30T10:33:54;18.80;99.90
21123;DHT22;10719;48.130;11.630;2023-08-30T10:36:23;18.90;99.90
21123;DHT22;10719;48.130;11.630;2023-08-30T10:38:50;18.80;99.90
21123;DHT22;10719;48.130;11.630;2023-08-30T10:41:29;18.90;99.90
21123;DHT22;10719;48.130;11.630;2023-08-30T10:43:57;18.60;99.90
21123;DHT22;10719;48.130;11.630;2023-08-30T10:46:33;18.60;99.90
21123;DHT22;10719;48.130;11.630;2023-08-30T10:49:11;18.80;99.90
21123;DHT22;10719;48.130;11.630;2023-08-30T10:51:40;19.40;99.90
21123;DHT22;10719;48.130;11.630;2023-08-30T10:54:13;19.80;99.90
21123;DHT22;10719;48.130;11.630;2023-08-30T10:59:18;19.90;99.90
21123;DHT22;10719;48.130;11.630;2023-08-30T11:01:46;19.10;99.90
21123;DHT22;10719;48.130;11.630;2023-08-30T11:04:14;18.80;99.90
21123;DHT22;10719;48.130;11.630;2023-08-30T11:06:39;18.20;99.90
21123;DHT22;10719;48.130;11.630;2023-08-30T11:09:06;18.30;99.90
21123;DHT22;10719;48.130;11.630;2023-08-30T11:11:32;18.40;99.90
21123;DHT22;10719;48.130;11.630;2023-08-30T11:14:06;18.70;99.90
21123;DHT22;10719;48.130;11.630;2023-08-30T11:16:32;18.40;99.90
21123;DHT22;10719;48.130;11.630;2023-08-30T11:19:03;18.30;99.90
21123;DHT22;10719;48.130;11.630;2023-08-30T11:21:30;18.20;99.90
21123;DHT22;10719;48.130;11.630;2023-08-30T11:23:56;18.00;99.90
21123;DHT22;10719;48.130;11.630;2023-08-30T11:26:22;17.90;99.90
21123;DHT22;10719;48.130;11.630;2023-08-30T11:28:47;17.80;99.90
21123;DHT22;10719;48.130;11.630;2023-08-30T11:31:27;17.50;99.90
21123;DHT22;10719;48.130;11.630;2023-08-30T11:33:58;17.50;99.90
21123;DHT22;10719;48.130;11.630;2023-08-30T11:36:27;17.50;99.90
21123;DHT22;10719;48.130;11.630;2023-08-30T11:38:53;17.80;99.90
21123;DHT22;10719;48.130;11.630;2023-08-30T11:41:23;18.00;99.90
21123;DHT22;10719;48.130;11.630;2023-08-30T11:43:50;18.30;99.90
21123;DHT22;10719;48.130;11.630;2023-08-30T11:46:16;19.70;99.90
21123;DHT22;10719;48.130;11.630;2023-08-30T11:48:42;21.00;99.90
21123;DHT22;10719;48.130;11.630;2023-08-30T11:51:08;22.40;99.90
21123;DHT22;10719;48.130;11.630;2023-08-30T11:53:34;23.20;99.90
21123;DHT22;10719;48.130;11.630;2023-08-30T11:56:01;24.80;99.90
21123;DHT22;10719;48.130;11.630;2023-08-30T11:58:27;24.30;99.90
21123;DHT22;10719;48.130;11.630;2023-08-30T12:00:53;23.40;99.90
21123;DHT22;10719;48.130;11.630;2023-08-30T12:03:22;23.10;99.90
21123;DHT22;10719;48.130;11.630;2023-08-30T12:05:49;23.10;99.90
21123;DHT22;10719;48.130;11.630;2023-08-30T12:08:24;22.10;99.90
21123;DHT22;10719;48.130;11.630;2023-08-30T12:10:51;20.70;99.90
21123;DHT22;10719;48.130;11.630;2023-08-30T12:13:31;20.20;99.90
21123;DHT22;10719;48.130;11.630;2023-08-30T12:15:58;20.60;99.90
21123;DHT22;10719;48.130;11.630;2023-08-30T12:18:25;20.20;99.90
21123;DHT22;10719;48.130;11.630;2023-08-30T12:20:57;19.40;99.90
21123;DHT22;10719;48.130;11.630;2023-08-30T12:23:24;19.30;99.90
21123;DHT22;10719;48.130;11.630;2023-08-30T12:26:19;19.00;99.90
21123;DHT22;10719;48.130;11.630;2023-08-30T12:28:45;19.00;99.90
21123;DHT22;10719;48.130;11.630;2023-08-30T12:31:10;18.90;99.90
21123;DHT22;10719;48.130;11.630;2023-08-30T12:33:37;18.60;99.90
21123;DHT22;10719;48.130;11.630;2023-08-30T12:36:03;18.30;99.90
21123;DHT22;10719;48.130;11.630;2023-08-30T12:38:29;18.00;99.90
21123;DHT22;10719;48.130;11.630;2023-08-30T12:40:56;17.90;99.90
21123;DHT22;10719;48.130;11.630;2023-08-30T12:43:23;17.70;99.90
21123;DHT22;10719;48.130;11.630;2023-08-30T12:45:49;17.50;99.90
21123;DHT22;10719;48.130;11.630;2023-08-30T12:48:16;17.30;99.90
21123;DHT22;10719;48.130;11.630;2023-08-30T12:50:45;17.10;99.90
21123;DHT22;10719;48.130;11.630;2023-08-30T12:53:11;16.90;99.90
21123;DHT22;10719;48.130;11.630;2023-08-30T12:55:37;16.90;99.90
21123;DHT22;10719;48.130;11.630;2023-08-30T12:58:08;16.80;99.90
21123;DHT22;10719;48.130;11.630;2023-08-30T13:00:35;16.70;99.90
21123;DHT22;10719;48.130;11.630;2023-08-30T13:03:01;16.90;99.90
21123;DHT22;10719;48.130;11.630;2023-08-30T13:05:26;16.90;99.90
21123;DHT22;10719;48.130;11.630;2023-08-30T13:07:52;17.00;99.90
21123;DHT22;10719;48.130;11.630;2023-08-30T13:10:18;17.70;99.90
21123;DHT22;10719;48.130;11.630;2023-08-30T13:12:44;18.70;99.90
21123;DHT22;10719;48.130;11.630;2023-08-30T13:15:10;20.30;99.90
21123;DHT22;10719;48.130;11.630;2023-08-30T13:17:36;20.80;99.90
21123;DHT22;10719;48.130;11.630;2023-08-30T13:20:02;20.80;99.90
21123;DHT22;10719;48.130;11.630;2023-08-30T13:22:28;20.60;99.90
21123;DHT22;10719;48.130;11.630;2023-08-30T13:24:54;20.60;99.90
21123;DHT22;10719;48.130;11.630;2023-08-30T13:27:20;19.90;99.90
21123;DHT22;10719;48.130;11.630;2023-08-30T13:29:46;19.30;99.90
21123;DHT22;10719;48.130;11.630;2023-08-30T13:32:12;19.40;99.90
21123;DHT22;10719;48.130;11.630;2023-08-30T13:34:38;19.00;99.90
21123;DHT22;10719;48.130;11.630;2023-08-30T13:37:04;19.00;99.90
21123;DHT22;10719;48.130;11.630;2023-08-30T13:39:30;18.90;99.90
21123;DHT22;10719;48.130;11.630;2023-08-30T13:42:20;18.90;99.90
21123;DHT22;10719;48.130;11.630;2023-08-30T13:44:49;18.60;99.90
21123;DHT22;10719;48.130;11.630;2023-08-30T13:47:15;18.20;99.90
21123;DHT22;10719;48.130;11.630;2023-08-30T13:49:42;18.00;99.90
21123;DHT22;10719;48.130;11.630;2023-08-30T13:52:07;17.90;99.90
21123;DHT22;10719;48.130;11.630;2023-08-30T13:54:33;17.70;99.90
21123;DHT22;10719;48.130;11.630;2023-08-30T13:56:59;17.40;99.90
21123;DHT22;10719;48.130;11.630;2023-08-30T13:59:25;17.20;99.90
21123;DHT22;10719;48.130;11.630;2023-08-30T14:01:51;17.10;99.90
21123;DHT22;10719;48.130;11.630;2023-08-30T14:04:16;17.00;99.90
21123;DHT22;10719;48.130;11.630;2023-08-30T14:06:42;17.00;99.90
21123;DHT22;10719;48.130;11.630;2023-08-30T14:09:07;16.90;99.90
21123;DHT22;10719;48.130;11.630;2023-08-30T14:11:34;16.80;99.90
21123;DHT22;10719;48.130;11.630;2023-08-30T14:14:02;16.60;99.90
21123;DHT22;10719;48.130;11.630;2023-08-30T14:16:27;16.60;99.90
21123;DHT22;10719;48.130;11.630;2023-08-30T14:18:53;16.40;99.90
21123;DHT22;10719;48.130;11.630;2023-08-30T14:21:19;16.40;99.90
21123;DHT22;10719;48.130;11.630;2023-08-30T14:23:45;16.40;99.90
21123;DHT22;10719;48.130;11.630;2023-08-30T14:26:11;16.30;99.90
21123;DHT22;10719;48.130;11.630;2023-08-30T14:28:39;16.40;99.90
21123;DHT22;10719;48.130;11.630;2023-08-30T14:31:08;16.40;99.90
21123;DHT22;10719;48.130;11.630;2023-08-30T14:33:35;16.20;99.90
21123;DHT22;10719;48.130;11.630;2023-08-30T14:36:00;16.00;99.90
21123;DHT22;10719;48.130;11.630;2023-08-30T14:38:29;16.10;99.90
21123;DHT22;10719;48.130;11.630;2023-08-30T14:40:59;16.10;99.90
21123;DHT22;10719;48.130;11.630;2023-08-30T14:43:25;16.10;99.90
21123;DHT22;10719;48.130;11.630;2023-08-30T14:45:50;16.00;99.90
21123;DHT22;10719;48.130;11.630;2023-08-30T14:48:16;16.00;99.90
21123;DHT22;10719;48.130;11.630;2023-08-30T14:50:41;16.00;99.90
21123;DHT22;10719;48.130;11.630;2023-08-30T14:53:08;16.00;99.90
21123;DHT22;10719;48.130;11.630;2023-08-30T14:55:34;16.30;99.90
21123;DHT22;10719;48.130;11.630;2023-08-30T14:57:59;16.60;99.90
21123;DHT22;10719;48.130;11.630;2023-08-30T15:00:25;17.10;99.90
21123;DHT22;10719;48.130;11.630;2023-08-30T15:02:51;17.40;99.90
21123;DHT22;10719;48.130;11.630;2023-08-30T15:05:17;17.50;99.90
21123;DHT22;10719;48.130;11.630;2023-08-30T15:07:43;17.50;99.90
21123;DHT22;10719;48.130;11.630;2023-08-30T15:10:09;17.30;99.90
21123;DHT22;10719;48.130;11.630;2023-08-30T15:12:35;17.60;99.90
21123;DHT22;10719;48.130;11.630;2023-08-30T15:15:02;17.60;99.90
21123;DHT22;10719;48.130;11.630;2023-08-30T15:17:28;17.50;99.90
21123;DHT22;10719;48.130;11.630;2023-08-30T15:19:53;17.90;99.90